aviador You're here:

LFRD Decoded Metar

DINARD in FRANCE
Report Time2017-10-22 16:30:00
UTC Time2017-10-22 17:01:38
Flight Rules vfr VFR
Wind270° at 10 kt
W.Decomp.*RWY 30: 8.8 kt HW 4.7 kt LCW
RWY 35: 2.1 kt HW 9.8 kt LCW
W.Rank270° ranks 28
Current wind is above 270° avg. (8.3)
Visibility9999 m
Phenomena:N/A
Clouds:Scattered 033 Hf
Broken 043 Hf
Overcast 050 Hf
Expected CloudBase > 2,400 ft AGL from Temp-Dew spread
Ceiling4,300 ft
Temp13°C (ISA -2)
Dew Point07°C (67% RH)
AAT8.7°C
QNH1023 hPa
Density Alt-200 ft
Elevation194 ft
Report Wrong Elevation
Raw Report
LFRD 221630Z AUTO 27010KT 9999 SCT033 BKN043 OVC050 13/07 Q1023
TEMPO SHRA=

Extra information for LFRD:More info

Metar Taf Metar & Taf Last 4 Metars F.Rules Stats Wind Profile Meteogram Temp Stats Airport Information Weather charts Add Link Nearby VenuesMetar ALERT Operation Metar Decoded Social comments